Portada
METAR-TAF:

METAR-TAF

Aeropuertos :

Santander, España

Aeropuerto de Santander

latitud: 43-26N, longitud: 003-49W, altitud: 6 m

Observación

El informe se hizo hace 20 minutos, a las 20:30 UTC
Viento 1 kt con dirección variable
Temperatura 14°C
Humedad 88%
Presión 1029 hPa
Visibilidad 10 km o más
Escasas nubes a una altura de 3400 ft
Cielo nuboso a una altura de 5200 ft

METAR: LEXJ 222030Z VRB01KT 9999 FEW034 BKN052 14/12 Q1029

Hora: 22:50 (20:50 UTC)

Pronóstico

El informe se hizo hace 50 minutos, a las 20:00 UTC
Pronóstico válido del 22 a las 21 UTC al 23 a las 21 UTC
Viento 5 kt con dirección variable
Visibilidad 10 km o más
Escasas nubes a una altura de 3000 ft
Cielo nuboso a una altura de 5000 ft
Temporalmente
del 23 a las 11 UTC al 23 a las 18 UTC
Viento 10 kt del noreste

TAF: LEXJ 222000Z 2221/2321 VRB05KT 9999 FEW030 BKN050 TX19/2314Z TN10/2305Z TEMPO 2311/2318 04010KT

Observaciones y pronósticos meteorológicos de más de 4000 aeropuertos (mensajes METAR y TAF).

Los puntos amarillos y rojos representan las estaciones disponibles.

Ponga el ratón en el punto deseado para ver el nombre de la estación.

Haga clic para ver las observaciones y los pronósticos meteorológicos.

Para cambiar el mapa : haga clic en los botones verdes con una cruz de color negro para hacer un zoom, en el botón verde con un guión para alejar o en las flechas verdes para mapas adyacentes.


METAR-TAF: